Time;durP1;ratioP1;P1;durP2;ratioP2;P2;SDS_P1;SDS_P2;PMS_P1;PMS_P2;Temp;Humidity;BMP_temperature;BMP_pressure;BME280_temperature;BME280_humidity;BME280_pressure;Samples;Min_cycle;Max_cycle;Signal;HPM_P1;HPM_P2
2022/01/06 00:01:14;;;;;;;0.20;0.20;;;;;;;;;;5023647;28;20207;-72
2022/01/06 00:03:40;;;;;;;0.20;0.20;;;;;;;;;;5023507;28;20211;-72
2022/01/06 00:06:08;;;;;;;0.20;0.20;;;;;;;;;;5023531;28;20245;-72
2022/01/06 00:08:36;;;;;;;0.17;0.17;;;;;;;;;;5023787;28;20469;-71
2022/01/06 00:11:05;;;;;;;0.20;0.20;;;;;;;;;;5023942;28;20270;-71
2022/01/06 00:13:35;;;;;;;0.57;0.57;;;;;;;;;;5023405;28;20211;-72
2022/01/06 00:16:15;;;;;;;1.63;1.53;;;;;;;;;;5023816;28;20501;-72
2022/01/06 00:24:05;;;;;;;0.20;0.20;;;;;;;;;;5023501;28;20453;-72
2022/01/06 00:26:33;;;;;;;0.20;0.20;;;;;;;;;;5023266;28;20251;-73
2022/01/06 00:28:59;;;;;;;0.20;0.20;;;;;;;;;;5023127;28;20242;-73
2022/01/06 00:31:25;;;;;;;0.20;0.20;;;;;;;;;;5023477;28;20253;-73
2022/01/06 00:33:51;;;;;;;0.20;0.20;;;;;;;;;;5023104;28;20229;-73
2022/01/06 00:36:18;;;;;;;0.20;0.20;;;;;;;;;;5023759;28;20207;-73
2022/01/06 00:38:44;;;;;;;0.20;0.20;;;;;;;;;;5023218;28;20254;-73
2022/01/06 00:41:10;;;;;;;0.20;0.20;;;;;;;;;;5023059;28;20268;-73
2022/01/06 00:43:38;;;;;;;0.10;0.10;;;;;;;;;;5023341;28;20263;-73
2022/01/06 00:46:04;;;;;;;0.10;0.10;;;;;;;;;;5023000;28;20210;-73
2022/01/06 00:48:30;;;;;;;0.10;0.10;;;;;;;;;;5023258;28;20248;-73
2022/01/06 00:50:56;;;;;;;0.20;0.20;;;;;;;;;;5022951;28;20218;-72
2022/01/06 00:53:23;;;;;;;0.10;0.10;;;;;;;;;;5023238;28;20431;-73
2022/01/06 00:55:49;;;;;;;0.20;0.20;;;;;;;;;;5023241;28;20562;-73
2022/01/06 00:58:15;;;;;;;0.10;0.10;;;;;;;;;;5022862;28;20202;-73
2022/01/06 01:00:43;;;;;;;0.20;0.20;;;;;;;;;;5010708;28;20303;-72
2022/01/06 01:03:10;;;;;;;0.20;0.20;;;;;;;;;;5003495;28;20207;-73
2022/01/06 01:05:37;;;;;;;0.10;0.10;;;;;;;;;;5003512;28;20223;-73
2022/01/06 01:08:03;;;;;;;0.20;0.20;;;;;;;;;;5003393;28;20270;-73
2022/01/06 01:10:29;;;;;;;0.20;0.20;;;;;;;;;;5003430;28;20206;-73
2022/01/06 01:12:56;;;;;;;0.20;0.20;;;;;;;;;;5003611;28;20207;-72
2022/01/06 01:15:23;;;;;;;0.20;0.20;;;;;;;;;;5003074;28;20302;-72
2022/01/06 01:17:51;;;;;;;0.20;0.20;;;;;;;;;;5009175;28;20206;-73
2022/01/06 01:20:18;;;;;;;0.77;0.77;;;;;;;;;;5023057;28;20221;-72
2022/01/06 01:22:44;;;;;;;0.20;0.20;;;;;;;;;;5022961;28;20494;-72
2022/01/06 01:25:10;;;;;;;0.20;0.20;;;;;;;;;;5022919;28;20206;-72
2022/01/06 01:27:40;;;;;;;0.20;0.20;;;;;;;;;;5022846;28;20272;-71
2022/01/06 01:30:10;;;;;;;0.10;0.10;;;;;;;;;;5022562;28;20205;-72
2022/01/06 01:32:37;;;;;;;0.20;0.20;;;;;;;;;;5022940;28;20236;-72
2022/01/06 01:35:07;;;;;;;0.20;0.20;;;;;;;;;;5022612;28;20220;-72
2022/01/06 01:37:33;;;;;;;0.20;0.20;;;;;;;;;;5022810;28;20268;-72
2022/01/06 01:40:00;;;;;;;0.27;0.27;;;;;;;;;;5022777;28;20205;-73
2022/01/06 01:42:27;;;;;;;0.50;0.50;;;;;;;;;;5022885;28;20253;-73
2022/01/06 01:44:55;;;;;;;0.20;0.20;;;;;;;;;;5023338;28;20421;-72
2022/01/06 01:47:29;;;;;;;0.20;0.20;;;;;;;;;;5026350;28;20229;-73
2022/01/06 01:49:59;;;;;;;0.40;0.40;;;;;;;;;;5026430;28;20195;-73
2022/01/06 01:52:26;;;;;;;0.10;0.10;;;;;;;;;;5026247;28;20238;-73
2022/01/06 01:54:53;;;;;;;0.20;0.20;;;;;;;;;;5026040;28;20244;-73
2022/01/06 01:57:19;;;;;;;0.20;0.20;;;;;;;;;;5026630;28;20273;-73
2022/01/06 01:59:45;;;;;;;0.20;0.20;;;;;;;;;;5025854;28;20214;-72
2022/01/06 02:02:12;;;;;;;0.20;0.20;;;;;;;;;;5026043;28;20398;-72
2022/01/06 02:04:38;;;;;;;0.50;0.50;;;;;;;;;;5026074;28;20540;-72
2022/01/06 02:07:04;;;;;;;0.20;0.20;;;;;;;;;;5024811;28;20205;-72
2022/01/06 02:09:32;;;;;;;0.20;0.20;;;;;;;;;;5024803;28;20202;-73
2022/01/06 02:11:58;;;;;;;0.20;0.20;;;;;;;;;;5025958;28;20206;-73
2022/01/06 02:14:26;;;;;;;0.20;0.20;;;;;;;;;;5025863;28;20206;-72
2022/01/06 02:16:53;;;;;;;0.20;0.20;;;;;;;;;;5025487;28;20259;-71
2022/01/06 02:19:20;;;;;;;0.20;0.20;;;;;;;;;;5025874;28;20559;-71
2022/01/06 02:21:47;;;;;;;0.20;0.20;;;;;;;;;;5025839;28;20560;-72
2022/01/06 02:24:14;;;;;;;0.20;0.20;;;;;;;;;;5025738;28;20206;-73
2022/01/06 02:26:40;;;;;;;0.20;0.20;;;;;;;;;;5019310;28;20458;-72
2022/01/06 02:29:08;;;;;;;0.20;0.20;;;;;;;;;;5005671;28;20226;-72
2022/01/06 02:31:39;;;;;;;0.20;0.20;;;;;;;;;;5005974;28;20206;-72
2022/01/06 02:34:06;;;;;;;0.20;0.20;;;;;;;;;;5005979;28;20194;-72
2022/01/06 02:36:32;;;;;;;0.20;0.20;;;;;;;;;;5005945;28;20351;-72
2022/01/06 02:38:59;;;;;;;0.20;0.20;;;;;;;;;;5005784;28;20572;-73
2022/01/06 02:41:25;;;;;;;0.20;0.20;;;;;;;;;;5005756;28;20274;-72
2022/01/06 02:43:52;;;;;;;0.20;0.20;;;;;;;;;;5005792;28;20506;-72
2022/01/06 02:46:18;;;;;;;1.50;1.50;;;;;;;;;;5005462;28;20203;-72
2022/01/06 02:48:44;;;;;;;0.20;0.20;;;;;;;;;;5005721;28;20227;-72
2022/01/06 02:51:10;;;;;;;0.20;0.20;;;;;;;;;;5005181;28;20234;-72
2022/01/06 02:53:36;;;;;;;0.20;0.20;;;;;;;;;;5005257;28;20207;-73
2022/01/06 02:56:04;;;;;;;0.20;0.20;;;;;;;;;;5005173;28;20277;-73
2022/01/06 02:58:31;;;;;;;0.20;0.20;;;;;;;;;;5025436;28;20259;-72
2022/01/06 03:00:57;;;;;;;0.20;0.20;;;;;;;;;;5029225;28;20207;-74
2022/01/06 03:03:23;;;;;;;0.20;0.20;;;;;;;;;;5005107;28;20207;-72
2022/01/06 03:05:49;;;;;;;0.20;0.20;;;;;;;;;;5005261;28;20274;-72
2022/01/06 03:08:16;;;;;;;0.20;0.20;;;;;;;;;;5005036;28;20598;-72
2022/01/06 03:10:44;;;;;;;0.20;0.20;;;;;;;;;;5005273;28;20509;-72
2022/01/06 03:13:11;;;;;;;0.20;0.20;;;;;;;;;;5005495;28;20209;-73
2022/01/06 03:15:38;;;;;;;0.20;0.20;;;;;;;;;;5005057;28;20206;-73
2022/01/06 03:18:04;;;;;;;0.30;0.30;;;;;;;;;;5004997;28;20249;-72
2022/01/06 03:20:30;;;;;;;0.20;0.20;;;;;;;;;;5005287;28;20228;-74
2022/01/06 03:22:57;;;;;;;0.20;0.20;;;;;;;;;;5004909;28;20433;-73
2022/01/06 03:25:23;;;;;;;0.20;0.20;;;;;;;;;;5005014;28;20251;-73
2022/01/06 03:27:49;;;;;;;0.20;0.20;;;;;;;;;;5004800;28;20541;-73
2022/01/06 03:30:18;;;;;;;0.63;0.63;;;;;;;;;;5004444;28;20248;-73
2022/01/06 03:32:45;;;;;;;0.20;0.20;;;;;;;;;;5004557;28;20206;-73
2022/01/06 03:35:12;;;;;;;0.20;0.20;;;;;;;;;;5004776;28;20206;-73
2022/01/06 03:37:39;;;;;;;0.20;0.20;;;;;;;;;;5004696;28;20467;-73
2022/01/06 03:40:06;;;;;;;0.20;0.20;;;;;;;;;;5004652;28;20557;-73
2022/01/06 03:42:33;;;;;;;0.20;0.20;;;;;;;;;;5004385;28;20233;-74
2022/01/06 03:44:59;;;;;;;0.20;0.20;;;;;;;;;;5004777;28;20213;-73
2022/01/06 03:47:27;;;;;;;0.20;0.20;;;;;;;;;;5015624;28;20205;-73
2022/01/06 03:49:53;;;;;;;0.20;0.20;;;;;;;;;;5023874;28;20205;-73
2022/01/06 03:52:19;;;;;;;0.20;0.20;;;;;;;;;;5023640;28;20233;-73
2022/01/06 03:54:45;;;;;;;0.20;0.20;;;;;;;;;;5023945;28;20209;-73
2022/01/06 03:57:12;;;;;;;0.20;0.20;;;;;;;;;;5023950;28;20252;-73
2022/01/06 03:59:38;;;;;;;0.20;0.20;;;;;;;;;;5043581;28;20323;-72
2022/01/06 04:02:05;;;;;;;0.30;0.30;;;;;;;;;;5043353;28;20204;-73
2022/01/06 04:04:32;;;;;;;0.20;0.20;;;;;;;;;;5043740;28;20392;-73
2022/01/06 04:06:58;;;;;;;0.20;0.20;;;;;;;;;;5043453;28;20208;-73
2022/01/06 04:09:24;;;;;;;0.20;0.20;;;;;;;;;;5043259;28;20225;-73
2022/01/06 04:11:51;;;;;;;0.20;0.20;;;;;;;;;;5043519;28;20271;-73
2022/01/06 04:14:17;;;;;;;0.20;0.20;;;;;;;;;;5043365;28;20266;-74
2022/01/06 04:16:43;;;;;;;0.20;0.20;;;;;;;;;;5043642;28;20227;-74
2022/01/06 04:19:09;;;;;;;0.20;0.20;;;;;;;;;;5043085;28;20201;-73
2022/01/06 04:21:37;;;;;;;0.20;0.20;;;;;;;;;;5043326;28;20205;-72
2022/01/06 04:24:03;;;;;;;0.20;0.20;;;;;;;;;;5043120;28;20196;-71
2022/01/06 04:26:30;;;;;;;0.20;0.20;;;;;;;;;;5043354;28;20228;-72
2022/01/06 04:28:56;;;;;;;0.20;0.20;;;;;;;;;;5043261;28;20298;-73
2022/01/06 04:31:22;;;;;;;0.20;0.20;;;;;;;;;;5043282;28;20204;-72
2022/01/06 04:33:49;;;;;;;0.20;0.20;;;;;;;;;;5042930;28;20204;-72
2022/01/06 04:36:15;;;;;;;0.20;0.20;;;;;;;;;;5041721;28;20205;-72
2022/01/06 04:38:42;;;;;;;0.23;0.23;;;;;;;;;;5023004;28;20201;-72
2022/01/06 04:41:09;;;;;;;0.20;0.20;;;;;;;;;;5023038;28;20248;-72
2022/01/06 04:43:35;;;;;;;0.20;0.20;;;;;;;;;;5023066;28;20205;-72
2022/01/06 04:46:01;;;;;;;0.20;0.20;;;;;;;;;;5022956;28;20212;-72
2022/01/06 04:48:28;;;;;;;0.20;0.20;;;;;;;;;;5023235;28;20275;-73
2022/01/06 04:50:55;;;;;;;0.20;0.20;;;;;;;;;;5023024;28;20213;-72
2022/01/06 04:53:21;;;;;;;0.20;0.20;;;;;;;;;;5023171;28;20405;-72
2022/01/06 04:55:51;;;;;;;0.27;0.27;;;;;;;;;;5023212;28;20440;-72
2022/01/06 04:58:17;;;;;;;0.20;0.20;;;;;;;;;;5030996;28;20193;-72
2022/01/06 05:00:43;;;;;;;0.20;0.20;;;;;;;;;;5042708;28;20204;-72
2022/01/06 05:03:09;;;;;;;0.20;0.20;;;;;;;;;;5018348;28;20240;-72
2022/01/06 05:05:35;;;;;;;0.20;0.20;;;;;;;;;;5022617;28;20205;-72
2022/01/06 05:08:02;;;;;;;0.20;0.20;;;;;;;;;;5023070;28;20271;-71
2022/01/06 05:10:28;;;;;;;0.20;0.20;;;;;;;;;;5023182;28;20241;-72
2022/01/06 05:12:55;;;;;;;0.20;0.20;;;;;;;;;;5023096;28;20563;-72
2022/01/06 05:15:21;;;;;;;0.20;0.20;;;;;;;;;;5023004;28;20205;-72
2022/01/06 05:17:48;;;;;;;0.20;0.20;;;;;;;;;;5022570;28;20208;-71
2022/01/06 05:20:14;;;;;;;0.20;0.20;;;;;;;;;;5024160;28;20212;-72
2022/01/06 05:22:44;;;;;;;0.20;0.20;;;;;;;;;;5026897;28;20243;-72
2022/01/06 05:25:11;;;;;;;0.20;0.20;;;;;;;;;;5026979;28;20197;-73
2022/01/06 05:27:37;;;;;;;0.20;0.20;;;;;;;;;;5009831;28;20216;-73
2022/01/06 05:30:06;;;;;;;0.27;0.27;;;;;;;;;;5007128;28;20261;-73
2022/01/06 05:32:32;;;;;;;0.20;0.20;;;;;;;;;;5007015;28;20275;-72
2022/01/06 05:34:58;;;;;;;0.20;0.20;;;;;;;;;;5006784;28;20229;-72
2022/01/06 05:37:24;;;;;;;0.30;0.30;;;;;;;;;;5007022;28;20229;-72
2022/01/06 05:39:50;;;;;;;0.20;0.20;;;;;;;;;;5006995;28;20201;-72
2022/01/06 05:42:17;;;;;;;0.20;0.20;;;;;;;;;;5006932;28;20559;-72
2022/01/06 05:44:43;;;;;;;0.20;0.20;;;;;;;;;;5006839;28;20206;-72
2022/01/06 05:47:11;;;;;;;0.20;0.20;;;;;;;;;;5006780;28;20225;-72
2022/01/06 05:49:37;;;;;;;0.20;0.20;;;;;;;;;;5006766;28;20272;-72
2022/01/06 05:52:03;;;;;;;0.20;0.20;;;;;;;;;;5006284;28;20237;-72
2022/01/06 05:54:30;;;;;;;0.20;0.20;;;;;;;;;;5006725;28;20206;-72
2022/01/06 05:56:56;;;;;;;0.20;0.20;;;;;;;;;;5006693;28;20576;-72
2022/01/06 05:59:22;;;;;;;0.20;0.20;;;;;;;;;;5041467;28;20197;-72
2022/01/06 06:01:48;;;;;;;0.23;0.23;;;;;;;;;;5045945;28;20529;-72
2022/01/06 06:04:16;;;;;;;0.20;0.20;;;;;;;;;;5045676;28;20208;-71
2022/01/06 06:06:42;;;;;;;0.20;0.20;;;;;;;;;;5045639;28;20205;-72
2022/01/06 06:09:08;;;;;;;0.20;0.20;;;;;;;;;;5045809;28;20228;-73
2022/01/06 06:11:34;;;;;;;0.20;0.20;;;;;;;;;;5045727;28;20511;-72
2022/01/06 06:14:00;;;;;;;0.20;0.20;;;;;;;;;;5046127;28;20205;-72
2022/01/06 06:16:27;;;;;;;0.20;0.20;;;;;;;;;;5040650;28;20205;-73
2022/01/06 06:18:53;;;;;;;0.20;0.20;;;;;;;;;;5026000;28;20415;-73
2022/01/06 06:21:20;;;;;;;0.27;0.27;;;;;;;;;;5025871;28;20205;-73
2022/01/06 06:23:47;;;;;;;0.20;0.20;;;;;;;;;;5025751;28;20209;-73
2022/01/06 06:26:13;;;;;;;0.40;0.40;;;;;;;;;;5025489;28;20205;-72
2022/01/06 06:28:39;;;;;;;0.20;0.20;;;;;;;;;;5025607;28;20317;-72
2022/01/06 06:31:05;;;;;;;0.20;0.20;;;;;;;;;;5025063;28;20251;-71
2022/01/06 06:33:32;;;;;;;0.20;0.20;;;;;;;;;;5025545;28;20268;-72
2022/01/06 06:35:58;;;;;;;0.20;0.20;;;;;;;;;;5025299;28;20205;-73
2022/01/06 06:38:25;;;;;;;0.20;0.20;;;;;;;;;;5025206;28;20504;-72
2022/01/06 06:40:52;;;;;;;0.20;0.20;;;;;;;;;;5025075;28;20205;-72
2022/01/06 06:43:18;;;;;;;0.20;0.20;;;;;;;;;;5025421;28;20252;-73
2022/01/06 06:45:44;;;;;;;0.20;0.20;;;;;;;;;;5025258;28;20432;-73
2022/01/06 06:48:13;;;;;;;0.20;0.20;;;;;;;;;;5024989;28;20205;-73
2022/01/06 06:50:40;;;;;;;0.20;0.20;;;;;;;;;;5025004;28;20405;-73
2022/01/06 06:53:07;;;;;;;0.20;0.20;;;;;;;;;;5025162;28;20225;-73
2022/01/06 06:55:35;;;;;;;0.20;0.20;;;;;;;;;;5024881;28;20205;-73
2022/01/06 06:58:02;;;;;;;0.23;0.23;;;;;;;;;;5025052;28;20371;-73
2022/01/06 07:00:28;;;;;;;0.20;0.20;;;;;;;;;;5024311;28;20204;-71
2022/01/06 07:02:54;;;;;;;0.30;0.30;;;;;;;;;;5013598;28;20209;-71
2022/01/06 07:05:21;;;;;;;0.30;0.30;;;;;;;;;;5005487;28;20430;-72
2022/01/06 07:07:47;;;;;;;0.20;0.20;;;;;;;;;;5024440;28;20292;-73
2022/01/06 07:10:14;;;;;;;0.20;0.20;;;;;;;;;;5023147;28;20587;-73
2022/01/06 07:12:42;;;;;;;0.20;0.20;;;;;;;;;;5011339;28;20495;-72
2022/01/06 07:15:09;;;;;;;0.20;0.20;;;;;;;;;;5008273;28;20247;-72
2022/01/06 07:17:35;;;;;;;0.50;0.50;;;;;;;;;;5014536;28;20365;-73
2022/01/06 07:20:02;;;;;;;0.20;0.20;;;;;;;;;;5011062;28;20202;-75
2022/01/06 07:22:28;;;;;;;0.20;0.20;;;;;;;;;;5007725;28;20206;-70
2022/01/06 07:24:54;;;;;;;0.20;0.20;;;;;;;;;;5004262;28;20205;-74
2022/01/06 07:27:21;;;;;;;0.20;0.20;;;;;;;;;;5008718;28;20203;-74
2022/01/06 07:29:48;;;;;;;0.20;0.20;;;;;;;;;;5008324;28;20242;-74
2022/01/06 07:32:15;;;;;;;0.20;0.20;;;;;;;;;;5015856;28;20247;-74
2022/01/06 07:34:41;;;;;;;0.20;0.20;;;;;;;;;;5018986;28;20230;-75
2022/01/06 07:37:07;;;;;;;0.20;0.20;;;;;;;;;;5019030;28;20206;-75
2022/01/06 07:39:33;;;;;;;0.20;0.20;;;;;;;;;;5013147;28;20198;-73
2022/01/06 07:42:00;;;;;;;0.20;0.20;;;;;;;;;;5007782;28;20206;-74
2022/01/06 07:44:26;;;;;;;0.20;0.20;;;;;;;;;;5009671;28;20249;-73
2022/01/06 07:46:53;;;;;;;0.20;0.20;;;;;;;;;;5016831;28;20245;-76
2022/01/06 07:49:19;;;;;;;0.20;0.20;;;;;;;;;;5003939;28;20225;-74
2022/01/06 07:51:46;;;;;;;0.20;0.20;;;;;;;;;;5003400;28;20256;-75
2022/01/06 07:54:12;;;;;;;0.20;0.20;;;;;;;;;;5003730;28;20269;-73
2022/01/06 07:56:38;;;;;;;0.20;0.20;;;;;;;;;;5016165;28;20211;-73
2022/01/06 07:59:04;;;;;;;0.30;0.30;;;;;;;;;;5022915;28;20201;-74
2022/01/06 08:01:32;;;;;;;0.20;0.20;;;;;;;;;;5023481;28;20228;-76
2022/01/06 08:03:59;;;;;;;0.20;0.20;;;;;;;;;;5023190;28;20276;-75
2022/01/06 08:06:25;;;;;;;0.20;0.20;;;;;;;;;;5023640;28;20205;-75
2022/01/06 08:08:51;;;;;;;0.20;0.20;;;;;;;;;;5022987;28;20236;-75
2022/01/06 08:11:18;;;;;;;0.20;0.20;;;;;;;;;;5023002;28;20205;-75
2022/01/06 08:13:44;;;;;;;0.20;0.20;;;;;;;;;;5023105;28;20437;-74
2022/01/06 08:16:10;;;;;;;0.30;0.30;;;;;;;;;;5022742;28;20228;-74
2022/01/06 08:18:37;;;;;;;0.20;0.20;;;;;;;;;;5022670;28;20268;-74
2022/01/06 08:21:04;;;;;;;0.20;0.20;;;;;;;;;;5023098;28;20484;-76
2022/01/06 08:23:31;;;;;;;0.20;0.20;;;;;;;;;;5022731;28;20505;-75
2022/01/06 08:25:57;;;;;;;0.20;0.20;;;;;;;;;;5023090;28;20243;-74
2022/01/06 08:28:23;;;;;;;0.20;0.20;;;;;;;;;;5022664;28;20209;-74
2022/01/06 08:30:50;;;;;;;0.20;0.20;;;;;;;;;;5016812;28;20222;-74
2022/01/06 08:33:16;;;;;;;0.20;0.20;;;;;;;;;;5022764;28;20226;-75
2022/01/06 08:35:43;;;;;;;0.20;0.20;;;;;;;;;;5022810;28;20251;-74
2022/01/06 08:38:10;;;;;;;8.90;1.50;;;;;;;;;;5022642;28;20546;-74
2022/01/06 08:40:37;;;;;;;0.20;0.20;;;;;;;;;;5022687;28;20326;-75
2022/01/06 08:43:03;;;;;;;0.20;0.20;;;;;;;;;;5022651;28;20239;-74
2022/01/06 08:45:30;;;;;;;0.20;0.20;;;;;;;;;;5022334;28;20213;-75
2022/01/06 08:47:56;;;;;;;0.20;0.20;;;;;;;;;;5022492;28;20205;-75
2022/01/06 08:50:22;;;;;;;0.20;0.20;;;;;;;;;;4986136;28;1047824;-74
2022/01/06 08:52:50;;;;;;;0.20;0.20;;;;;;;;;;5023229;28;20276;-75
2022/01/06 08:55:18;;;;;;;0.20;0.20;;;;;;;;;;5022320;28;20392;-74
2022/01/06 08:57:44;;;;;;;0.20;0.20;;;;;;;;;;5022935;28;20205;-75
2022/01/06 09:00:12;;;;;;;0.20;0.20;;;;;;;;;;5022938;28;20202;-76
2022/01/06 09:02:38;;;;;;;0.20;0.20;;;;;;;;;;5021908;28;20282;-75
2022/01/06 09:05:06;;;;;;;0.20;0.20;;;;;;;;;;5022857;28;20205;-74
2022/01/06 09:07:32;;;;;;;0.20;0.20;;;;;;;;;;5003356;28;20214;-74
2022/01/06 09:09:58;;;;;;;0.20;0.20;;;;;;;;;;5003263;28;20244;-75
2022/01/06 09:12:26;;;;;;;0.20;0.20;;;;;;;;;;5003421;28;20208;-74
2022/01/06 09:14:53;;;;;;;0.20;0.20;;;;;;;;;;5005815;28;20259;-75
2022/01/06 09:17:19;;;;;;;0.20;0.20;;;;;;;;;;5025042;28;20272;-75
2022/01/06 09:19:45;;;;;;;0.20;0.20;;;;;;;;;;5022976;28;20205;-76
2022/01/06 09:22:11;;;;;;;0.20;0.20;;;;;;;;;;5022925;28;20335;-74
2022/01/06 09:24:38;;;;;;;0.20;0.20;;;;;;;;;;5022667;28;20237;-76
2022/01/06 09:27:04;;;;;;;0.20;0.20;;;;;;;;;;5022987;28;20385;-75
2022/01/06 09:29:32;;;;;;;0.20;0.20;;;;;;;;;;5022859;28;20229;-76
2022/01/06 09:31:58;;;;;;;0.20;0.20;;;;;;;;;;5022940;28;20210;-71
2022/01/06 09:34:24;;;;;;;0.20;0.20;;;;;;;;;;5022874;28;20207;-72
2022/01/06 09:36:50;;;;;;;0.20;0.20;;;;;;;;;;5022907;28;20433;-72
2022/01/06 09:39:17;;;;;;;0.20;0.20;;;;;;;;;;5022745;28;20198;-70
2022/01/06 09:41:44;;;;;;;0.20;0.20;;;;;;;;;;5022553;28;20234;-70
2022/01/06 09:44:11;;;;;;;0.20;0.20;;;;;;;;;;5022883;28;20215;-70
2022/01/06 09:46:38;;;;;;;0.20;0.20;;;;;;;;;;5022766;28;20215;-70
2022/01/06 09:49:05;;;;;;;0.20;0.20;;;;;;;;;;5022722;28;20526;-70
2022/01/06 09:51:31;;;;;;;0.10;0.10;;;;;;;;;;5022285;28;20236;-70
2022/01/06 09:53:58;;;;;;;0.20;0.20;;;;;;;;;;5022657;28;20208;-70
2022/01/06 09:56:26;;;;;;;0.10;0.10;;;;;;;;;;5022459;28;20236;-69
2022/01/06 09:58:53;;;;;;;0.10;0.10;;;;;;;;;;5022849;28;20433;-70
2022/01/06 10:01:19;;;;;;;0.20;0.20;;;;;;;;;;5023050;28;20211;-71
2022/01/06 10:03:48;;;;;;;0.20;0.20;;;;;;;;;;5022814;28;20208;-71
2022/01/06 10:06:16;;;;;;;0.10;0.10;;;;;;;;;;5023515;28;20212;-71
2022/01/06 10:08:43;;;;;;;0.10;0.10;;;;;;;;;;5021040;28;20205;-71
2022/01/06 10:11:11;;;;;;;0.20;0.20;;;;;;;;;;5006206;28;20235;-71
2022/01/06 10:13:38;;;;;;;0.10;0.10;;;;;;;;;;5011839;28;20197;-71
2022/01/06 10:16:22;;;;;;;0.10;0.10;;;;;;;;;;5025842;28;20201;-71
2022/01/06 10:18:57;;;;;;;0.10;0.10;;;;;;;;;;5025875;28;20248;-72
2022/01/06 10:21:23;;;;;;;0.20;0.20;;;;;;;;;;5025702;28;20239;-72
2022/01/06 10:23:58;;;;;;;0.13;0.13;;;;;;;;;;5025650;28;20202;-71
2022/01/06 10:26:24;;;;;;;0.20;0.20;;;;;;;;;;5026159;28;20197;-70
2022/01/06 10:28:51;;;;;;;0.20;0.20;;;;;;;;;;5025764;28;20207;-70
2022/01/06 10:31:18;;;;;;;0.17;0.17;;;;;;;;;;5013927;28;20471;-70
2022/01/06 10:33:44;;;;;;;0.10;0.10;;;;;;;;;;5006107;28;20233;-70
2022/01/06 10:36:12;;;;;;;0.10;0.10;;;;;;;;;;5005616;28;20211;-70
2022/01/06 10:38:39;;;;;;;0.10;0.10;;;;;;;;;;5019902;28;20215;-70
2022/01/06 10:41:10;;;;;;;0.10;0.10;;;;;;;;;;5025148;28;20533;-70
2022/01/06 10:43:36;;;;;;;0.10;0.10;;;;;;;;;;5025487;28;20330;-71
2022/01/06 10:46:03;;;;;;;0.10;0.10;;;;;;;;;;5025469;28;20206;-71
2022/01/06 10:48:29;;;;;;;0.10;0.10;;;;;;;;;;5024702;28;20204;-71
2022/01/06 10:50:57;;;;;;;0.10;0.10;;;;;;;;;;5021951;28;20227;-70
2022/01/06 10:53:24;;;;;;;0.10;0.10;;;;;;;;;;5024933;28;20208;-71
2022/01/06 10:55:51;;;;;;;0.10;0.10;;;;;;;;;;5019453;28;20217;-72
2022/01/06 10:58:18;;;;;;;0.10;0.10;;;;;;;;;;5017049;28;20211;-79
2022/01/06 11:00:46;;;;;;;0.10;0.10;;;;;;;;;;5008489;28;20209;-72
2022/01/06 11:03:13;;;;;;;0.10;0.10;;;;;;;;;;5019051;28;20248;-71
2022/01/06 11:05:40;;;;;;;0.10;0.10;;;;;;;;;;5005318;28;20204;-71
2022/01/06 11:08:07;;;;;;;0.10;0.10;;;;;;;;;;5014314;28;20206;-71
2022/01/06 11:10:37;;;;;;;0.10;0.10;;;;;;;;;;5021531;28;20225;-72
2022/01/06 11:13:03;;;;;;;0.10;0.10;;;;;;;;;;5027309;28;20446;-71
2022/01/06 11:15:30;;;;;;;0.23;0.23;;;;;;;;;;5018804;28;20211;-72
2022/01/06 11:17:56;;;;;;;0.20;0.20;;;;;;;;;;5023514;28;20205;-71
2022/01/06 11:20:24;;;;;;;0.13;0.13;;;;;;;;;;5005956;28;20201;-70
2022/01/06 11:22:51;;;;;;;0.10;0.10;;;;;;;;;;5012106;28;20514;-70
2022/01/06 11:25:17;;;;;;;0.10;0.10;;;;;;;;;;5006156;28;20209;-71
2022/01/06 11:27:45;;;;;;;0.20;0.20;;;;;;;;;;5004826;28;20202;-71
2022/01/06 11:30:13;;;;;;;0.10;0.10;;;;;;;;;;5021643;28;20230;-72
2022/01/06 11:32:41;;;;;;;0.10;0.10;;;;;;;;;;5034243;28;20256;-72
2022/01/06 11:35:11;;;;;;;0.10;0.10;;;;;;;;;;5014195;28;20216;-71
2022/01/06 11:37:43;;;;;;;0.20;0.20;;;;;;;;;;5019097;28;20203;-72
2022/01/06 11:40:10;;;;;;;0.10;0.10;;;;;;;;;;5010424;28;20568;-73
2022/01/06 11:42:36;;;;;;;0.10;0.10;;;;;;;;;;5017799;28;20261;-72
2022/01/06 11:45:06;;;;;;;0.17;0.17;;;;;;;;;;5015083;28;20205;-73
2022/01/06 11:47:33;;;;;;;0.10;0.10;;;;;;;;;;5023738;28;20279;-72
2022/01/06 11:50:06;;;;;;;0.10;0.10;;;;;;;;;;5010993;28;20251;-73
2022/01/06 11:52:33;;;;;;;0.10;0.10;;;;;;;;;;5023024;28;20417;-72
2022/01/06 11:54:59;;;;;;;0.10;0.10;;;;;;;;;;5012323;28;20229;-72
2022/01/06 11:57:29;;;;;;;0.20;0.20;;;;;;;;;;5017954;28;20509;-72
2022/01/06 11:59:56;;;;;;;0.10;0.10;;;;;;;;;;5015851;28;20247;-72
2022/01/06 12:02:23;;;;;;;0.20;0.20;;;;;;;;;;5005802;28;20459;-71
2022/01/06 12:04:56;;;;;;;0.10;0.10;;;;;;;;;;5015261;28;20247;-72
2022/01/06 12:07:23;;;;;;;0.20;0.20;;;;;;;;;;5018721;28;20269;-71
2022/01/06 12:09:56;;;;;;;0.20;0.20;;;;;;;;;;5008973;28;20233;-71
2022/01/06 12:12:31;;;;;;;0.10;0.10;;;;;;;;;;5030546;28;20398;-71
2022/01/06 12:15:04;;;;;;;0.10;0.10;;;;;;;;;;5027793;28;20207;-73
2022/01/06 12:17:32;;;;;;;0.10;0.10;;;;;;;;;;5007019;28;20223;-73
2022/01/06 12:19:59;;;;;;;0.20;0.20;;;;;;;;;;5014458;28;20238;-71
2022/01/06 12:22:26;;;;;;;0.20;0.20;;;;;;;;;;5021011;28;20204;-72
2022/01/06 12:24:58;;;;;;;0.20;0.20;;;;;;;;;;5014230;28;20259;-72
2022/01/06 12:27:24;;;;;;;0.20;0.20;;;;;;;;;;5009277;28;20200;-72
2022/01/06 12:29:51;;;;;;;0.17;0.17;;;;;;;;;;5013642;28;20216;-72
2022/01/06 12:32:19;;;;;;;0.20;0.20;;;;;;;;;;5010035;28;20435;-73
2022/01/06 12:34:52;;;;;;;0.10;0.10;;;;;;;;;;5032016;28;20208;-73
2022/01/06 12:37:24;;;;;;;0.17;0.17;;;;;;;;;;5013564;28;20203;-73
2022/01/06 12:39:50;;;;;;;0.20;0.20;;;;;;;;;;5014040;28;20251;-73
2022/01/06 12:42:17;;;;;;;0.20;0.20;;;;;;;;;;5003647;28;20432;-72
2022/01/06 12:44:43;;;;;;;0.10;0.10;;;;;;;;;;5003203;28;20213;-72
2022/01/06 12:47:09;;;;;;;0.20;0.20;;;;;;;;;;5021533;28;20204;-73
2022/01/06 12:49:37;;;;;;;0.20;0.20;;;;;;;;;;5033267;28;20530;-72
2022/01/06 12:52:06;;;;;;;0.20;0.20;;;;;;;;;;5032789;28;20237;-71
2022/01/06 12:54:33;;;;;;;0.20;0.20;;;;;;;;;;5036909;28;20213;-72
2022/01/06 12:57:02;;;;;;;0.20;0.20;;;;;;;;;;5019954;28;20271;-71
2022/01/06 12:59:33;;;;;;;0.20;0.20;;;;;;;;;;5009908;28;20545;-72
2022/01/06 13:02:02;;;;;;;0.20;0.20;;;;;;;;;;5014729;28;20263;-72
2022/01/06 13:04:29;;;;;;;0.20;0.20;;;;;;;;;;5016551;28;20517;-72
2022/01/06 13:06:56;;;;;;;0.20;0.20;;;;;;;;;;5009068;28;20211;-72
2022/01/06 13:09:24;;;;;;;0.17;0.17;;;;;;;;;;5013276;28;20428;-71
2022/01/06 13:11:52;;;;;;;0.20;0.20;;;;;;;;;;5018501;28;20231;-71
2022/01/06 13:14:25;;;;;;;0.20;0.20;;;;;;;;;;5022479;28;20206;-70
2022/01/06 13:16:51;;;;;;;0.20;0.20;;;;;;;;;;5013371;28;20215;-73
2022/01/06 13:19:17;;;;;;;0.33;0.33;;;;;;;;;;5020802;28;20209;-70
2022/01/06 13:21:48;;;;;;;0.10;0.10;;;;;;;;;;5019252;28;20425;-72
2022/01/06 13:24:15;;;;;;;0.10;0.10;;;;;;;;;;5011849;28;20492;-71
2022/01/06 13:26:46;;;;;;;0.20;0.20;;;;;;;;;;5022142;28;20277;-71
2022/01/06 13:29:13;;;;;;;0.20;0.20;;;;;;;;;;5003879;28;20216;-72
2022/01/06 13:31:39;;;;;;;0.20;0.20;;;;;;;;;;5014002;28;20225;-71
2022/01/06 13:34:05;;;;;;;0.20;0.20;;;;;;;;;;5022730;28;20253;-71
2022/01/06 13:36:33;;;;;;;0.10;0.10;;;;;;;;;;5011554;28;20375;-71
2022/01/06 13:39:09;;;;;;;0.13;0.13;;;;;;;;;;5022461;28;20355;-71
2022/01/06 13:41:39;;;;;;;0.20;0.20;;;;;;;;;;5012851;28;20414;-72
2022/01/06 13:44:08;;;;;;;0.20;0.20;;;;;;;;;;5010845;28;20206;-70
2022/01/06 13:46:50;;;;;;;0.10;0.10;;;;;;;;;;5008801;28;20294;-71
2022/01/06 13:52:00;;;;;;;0.10;0.10;;;;;;;;;;5023967;28;20256;-71
2022/01/06 13:54:29;;;;;;;0.13;0.13;;;;;;;;;;5010005;28;20501;-70
2022/01/06 13:57:06;;;;;;;0.10;0.10;;;;;;;;;;5012904;28;20497;-70
2022/01/06 13:59:33;;;;;;;0.43;0.43;;;;;;;;;;5026415;28;20472;-70
2022/01/06 14:01:59;;;;;;;0.20;0.20;;;;;;;;;;5024134;28;20219;-71
2022/01/06 14:04:26;;;;;;;0.20;0.20;;;;;;;;;;5025019;28;20199;-72
2022/01/06 14:06:52;;;;;;;0.20;0.20;;;;;;;;;;5015596;28;20271;-71
2022/01/06 14:09:20;;;;;;;0.20;0.20;;;;;;;;;;5007208;28;20207;-71
2022/01/06 14:11:46;;;;;;;0.20;0.20;;;;;;;;;;5007743;28;20301;-71
2022/01/06 14:14:13;;;;;;;0.10;0.10;;;;;;;;;;5019398;28;20218;-71
2022/01/06 14:16:40;;;;;;;0.20;0.20;;;;;;;;;;5006014;28;20214;-70
2022/01/06 14:19:06;;;;;;;0.10;0.10;;;;;;;;;;5008285;28;20214;-70
2022/01/06 14:21:33;;;;;;;0.20;0.20;;;;;;;;;;5017111;28;20427;-70
2022/01/06 14:23:59;;;;;;;0.17;0.17;;;;;;;;;;5021076;28;20216;-70
2022/01/06 14:26:25;;;;;;;0.20;0.20;;;;;;;;;;5025830;28;20374;-70
2022/01/06 14:28:51;;;;;;;0.20;0.20;;;;;;;;;;5011861;28;20229;-70
2022/01/06 14:31:17;;;;;;;0.20;0.20;;;;;;;;;;5018315;28;20230;-69
2022/01/06 14:33:45;;;;;;;0.10;0.10;;;;;;;;;;5019452;28;20210;-70
2022/01/06 14:36:12;;;;;;;0.20;0.20;;;;;;;;;;5005946;28;20505;-70
2022/01/06 14:38:40;;;;;;;0.20;0.20;;;;;;;;;;5013986;28;20209;-70
2022/01/06 14:41:07;;;;;;;0.20;0.20;;;;;;;;;;5006150;28;20202;-71
2022/01/06 14:43:33;;;;;;;0.20;0.20;;;;;;;;;;5012880;28;20207;-70
2022/01/06 14:46:00;;;;;;;0.20;0.20;;;;;;;;;;5005553;28;20203;-70
2022/01/06 14:48:27;;;;;;;0.20;0.20;;;;;;;;;;5005621;28;20216;-70
2022/01/06 14:50:54;;;;;;;0.20;0.20;;;;;;;;;;5005431;28;20226;-70